createdAt,value
2023-05-20T00:02:01.863Z,3.05
2023-05-20T00:04:29.896Z,3.58
2023-05-20T00:06:58.059Z,5.03
2023-05-20T00:09:26.276Z,2.13
2023-05-20T00:11:54.311Z,2.55
2023-05-20T00:14:22.436Z,1.42
2023-05-20T00:16:51.868Z,4.88
2023-05-20T00:19:19.927Z,5.28
2023-05-20T00:21:47.960Z,3.83
2023-05-20T00:24:16.009Z,1.77
2023-05-20T00:26:44.131Z,3.28
2023-05-20T00:29:12.119Z,3.72
2023-05-20T00:31:40.241Z,2.20
2023-05-20T00:34:09.910Z,2.42
2023-05-20T00:36:37.922Z,1.80
2023-05-20T00:39:05.969Z,2.40
2023-05-20T00:41:34.294Z,1.83
2023-05-20T00:44:02.307Z,4.30
2023-05-20T00:46:30.713Z,2.10
2023-05-20T00:48:59.125Z,2.85
2023-05-20T00:51:28.659Z,3.60
2023-05-20T00:53:57.556Z,2.70
2023-05-20T00:56:26.360Z,2.10
2023-05-20T00:58:54.613Z,2.92
2023-05-20T01:01:22.726Z,3.08
2023-05-20T01:03:50.795Z,2.25
2023-05-20T01:06:18.831Z,1.48
2023-05-20T01:08:48.261Z,3.45
2023-05-20T01:11:23.669Z,1.13
2023-05-20T01:13:57.886Z,1.40
2023-05-20T01:16:26.349Z,2.45
2023-05-20T01:18:57.410Z,1.75
2023-05-20T01:21:26.122Z,3.33
2023-05-20T01:23:55.677Z,4.30
2023-05-20T01:26:27.216Z,2.95
2023-05-20T01:28:57.907Z,6.72
2023-05-20T01:31:30.643Z,4.18
2023-05-20T01:33:59.663Z,1.63
2023-05-20T01:36:28.529Z,2.38
2023-05-20T01:38:58.903Z,3.00
2023-05-20T01:41:27.825Z,2.38
2023-05-20T01:43:56.730Z,2.25
2023-05-20T01:46:25.077Z,2.92
2023-05-20T01:48:53.214Z,1.42
2023-05-20T01:51:21.275Z,3.53
2023-05-20T01:53:49.251Z,1.98
2023-05-20T01:56:18.665Z,3.17
2023-05-20T01:58:46.631Z,2.17
2023-05-20T02:01:14.809Z,3.05
2023-05-20T02:03:42.973Z,2.63
2023-05-20T02:06:10.999Z,2.65
2023-05-20T02:08:39.357Z,2.95
2023-05-20T02:11:07.472Z,6.72
2023-05-20T02:13:36.979Z,4.25
2023-05-20T02:16:05.255Z,1.33
2023-05-20T02:18:35.342Z,5.05
2023-05-20T02:21:04.477Z,2.28
2023-05-20T02:23:32.566Z,2.60
2023-05-20T02:26:01.144Z,3.40
2023-05-20T02:28:29.233Z,2.75
2023-05-20T02:30:58.564Z,2.92
2023-05-20T02:33:28.043Z,2.63
2023-05-20T02:35:56.187Z,2.95
2023-05-20T02:38:24.140Z,3.20
2023-05-20T02:40:52.209Z,1.45
2023-05-20T02:43:20.349Z,5.53
2023-05-20T02:45:48.696Z,3.17
2023-05-20T02:48:18.041Z,2.30
2023-05-20T02:50:47.338Z,1.92
2023-05-20T02:53:15.371Z,2.25
2023-05-20T02:55:45.144Z,3.55
2023-05-20T02:58:13.441Z,3.05
2023-05-20T03:00:41.668Z,1.42
2023-05-20T03:03:10.715Z,4.65
2023-05-20T03:05:40.231Z,5.10
2023-05-20T03:08:10.621Z,3.42
2023-05-20T03:10:38.996Z,4.18
2023-05-20T03:13:09.499Z,3.38
2023-05-20T03:15:37.734Z,4.75
2023-05-20T03:18:06.157Z,0.88
2023-05-20T03:20:36.872Z,1.80
2023-05-20T03:23:07.357Z,2.45
2023-05-20T03:25:35.764Z,1.67
2023-05-20T03:28:03.987Z,2.00
2023-05-20T03:30:32.109Z,2.47
2023-05-20T03:33:00.514Z,2.42
2023-05-20T03:35:28.611Z,2.35
2023-05-20T03:37:56.716Z,1.33
2023-05-20T03:40:26.105Z,1.77
2023-05-20T03:42:54.196Z,0.90
2023-05-20T03:45:22.309Z,2.38
2023-05-20T03:47:50.414Z,2.00
2023-05-20T03:50:18.661Z,2.80
2023-05-20T03:52:47.078Z,1.52
2023-05-20T03:55:15.195Z,9.35
2023-05-20T03:57:44.523Z,1.77
2023-05-20T04:00:14.824Z,2.95
2023-05-20T04:02:43.031Z,4.70
2023-05-20T04:05:11.747Z,2.95
2023-05-20T04:07:39.762Z,1.70
2023-05-20T04:10:08.962Z,2.58
2023-05-20T04:12:38.380Z,3.58
2023-05-20T04:15:09.213Z,3.85
2023-05-20T04:17:38.455Z,1.30
2023-05-20T04:20:08.201Z,2.75
2023-05-20T04:22:36.293Z,1.55
2023-05-20T04:25:06.598Z,2.28
2023-05-20T04:27:34.860Z,0.95
2023-05-20T04:30:04.229Z,2.20
2023-05-20T04:32:34.472Z,1.42
2023-05-20T04:35:03.063Z,3.25
2023-05-20T04:37:32.200Z,1.10
2023-05-20T04:40:03.142Z,2.40
2023-05-20T04:42:31.105Z,1.55
2023-05-20T04:45:01.884Z,4.10
2023-05-20T04:47:30.018Z,0.75
2023-05-20T04:49:59.412Z,2.50
2023-05-20T04:52:27.594Z,2.50
2023-05-20T04:54:58.252Z,1.83
2023-05-20T04:57:26.382Z,3.28
2023-05-20T04:59:58.661Z,1.83
2023-05-20T05:02:26.751Z,1.95
2023-05-20T05:04:54.866Z,4.63
2023-05-20T05:07:24.234Z,3.60
2023-05-20T05:09:52.284Z,3.17
2023-05-20T05:12:20.369Z,1.42
2023-05-20T05:14:48.329Z,2.95
2023-05-20T05:17:16.372Z,1.20
2023-05-20T05:19:44.365Z,2.15
2023-05-20T05:22:12.377Z,2.80
2023-05-20T05:24:41.821Z,3.50
2023-05-20T05:27:09.793Z,1.85
2023-05-20T05:29:37.773Z,2.88
2023-05-20T05:32:06.473Z,1.57
2023-05-20T05:34:34.471Z,4.57
2023-05-20T05:37:02.575Z,3.27
2023-05-20T05:39:30.635Z,3.53
2023-05-20T05:42:00.176Z,1.77
2023-05-20T05:44:28.165Z,2.90
2023-05-20T05:46:56.326Z,1.17
2023-05-20T05:49:24.302Z,3.17
2023-05-20T05:51:52.775Z,2.73
2023-05-20T05:54:21.438Z,4.03
2023-05-20T05:56:49.493Z,1.57
2023-05-20T05:59:19.110Z,2.93
2023-05-20T06:01:47.188Z,4.63
2023-05-20T06:04:15.487Z,2.70
2023-05-20T06:06:43.541Z,3.77
2023-05-20T06:09:11.533Z,3.30
2023-05-20T06:11:42.379Z,4.33
2023-05-20T06:14:10.408Z,4.30
2023-05-20T06:16:39.939Z,1.57
2023-05-20T06:19:09.400Z,14.93
2023-05-20T06:21:38.579Z,3.80
2023-05-20T06:24:07.282Z,3.33
2023-05-20T06:26:35.275Z,1.97
2023-05-20T06:29:04.745Z,1.40
2023-05-20T06:31:32.939Z,1.23
2023-05-20T06:34:02.415Z,1.97
2023-05-20T06:36:33.013Z,1.00
2023-05-20T06:39:01.827Z,3.60
2023-05-20T06:41:29.792Z,3.33
2023-05-20T06:43:57.815Z,2.83
2023-05-20T06:46:26.007Z,1.10
2023-05-20T06:48:54.033Z,1.07
2023-05-20T06:51:23.860Z,1.67
2023-05-20T06:53:52.143Z,4.00
2023-05-20T06:56:20.165Z,2.92
2023-05-20T06:58:48.310Z,3.03
2023-05-20T07:01:18.134Z,3.37
2023-05-20T07:03:46.557Z,2.07
2023-05-20T07:06:14.561Z,2.87
2023-05-20T07:08:43.990Z,1.00
2023-05-20T07:11:11.988Z,1.38
2023-05-20T07:13:39.993Z,5.35
2023-05-20T07:16:08.122Z,2.03
2023-05-20T07:18:36.457Z,2.63
2023-05-20T07:21:04.555Z,1.15
2023-05-20T07:23:32.528Z,1.73
2023-05-20T07:26:01.902Z,0.88
2023-05-20T07:28:29.964Z,1.65
2023-05-20T07:31:00.272Z,1.63
2023-05-20T07:33:29.747Z,1.03
2023-05-20T07:35:57.777Z,1.87
2023-05-20T07:38:25.734Z,1.67
2023-05-20T07:40:53.764Z,1.90
2023-05-20T07:43:23.171Z,1.10
2023-05-20T07:45:51.164Z,2.97
2023-05-20T07:48:19.209Z,7.17
2023-05-20T07:50:47.294Z,3.13
2023-05-20T07:53:15.286Z,6.13
2023-05-20T07:55:43.285Z,2.95
2023-05-20T07:58:11.422Z,1.67
2023-05-20T08:00:41.094Z,3.95
2023-05-20T08:03:09.362Z,2.15
2023-05-20T08:05:38.675Z,1.80
2023-05-20T08:08:06.789Z,2.72
2023-05-20T08:10:34.920Z,2.70
2023-05-20T08:13:03.079Z,12.70
2023-05-20T08:15:31.106Z,39.87
2023-05-20T08:18:00.593Z,7.50
2023-05-20T08:20:29.545Z,8.10
2023-05-20T08:22:57.632Z,8.40
2023-05-20T08:25:25.633Z,8.97
2023-05-20T08:27:53.623Z,9.60
2023-05-20T08:30:21.933Z,9.70
2023-05-20T08:32:50.030Z,9.25
2023-05-20T08:35:20.818Z,10.75
2023-05-20T08:37:49.726Z,9.93
2023-05-20T08:40:17.787Z,10.35
2023-05-20T08:42:45.990Z,11.50
2023-05-20T08:45:14.688Z,12.35
2023-05-20T08:47:43.946Z,13.50
2023-05-20T08:50:13.169Z,14.00
2023-05-20T08:52:45.057Z,14.13
2023-05-20T08:55:17.469Z,14.80
2023-05-20T08:57:47.289Z,14.73
2023-05-20T09:00:17.164Z,14.38
2023-05-20T09:02:47.481Z,9.25
2023-05-20T09:05:15.646Z,8.65
2023-05-20T09:07:44.992Z,9.82
2023-05-20T09:10:13.006Z,9.50
2023-05-20T09:12:41.380Z,8.60
2023-05-20T09:15:10.326Z,8.60
2023-05-20T09:17:38.444Z,8.77
2023-05-20T09:20:09.903Z,12.32
2023-05-20T09:22:39.734Z,10.50
2023-05-20T09:25:12.381Z,11.88
2023-05-20T09:27:41.598Z,13.73
2023-05-20T09:30:12.782Z,16.40
2023-05-20T09:32:41.001Z,18.30
2023-05-20T09:35:09.639Z,20.10
2023-05-20T09:37:38.699Z,22.92
2023-05-20T09:40:10.179Z,24.42
2023-05-20T09:42:41.660Z,25.70
2023-05-20T09:45:10.544Z,26.55
2023-05-20T09:47:40.679Z,26.13
2023-05-20T09:50:10.334Z,27.33
2023-05-20T09:52:39.657Z,26.75
2023-05-20T09:55:11.541Z,24.45
2023-05-20T09:57:39.880Z,23.95
2023-05-20T10:00:10.626Z,23.35
2023-05-20T10:02:39.422Z,23.58
2023-05-20T10:05:13.722Z,23.23
2023-05-20T10:08:05.544Z,23.00
2023-05-20T10:10:44.993Z,22.13
2023-05-20T10:13:34.581Z,21.35
2023-05-20T10:16:11.351Z,137.77
2023-05-20T10:18:50.784Z,43.55
2023-05-20T10:21:22.400Z,59.97
2023-05-20T10:23:50.422Z,58.97
2023-05-20T10:26:20.652Z,51.47
2023-05-20T10:28:48.658Z,58.67
2023-05-20T10:31:17.842Z,62.78
2023-05-20T10:33:47.370Z,44.28
2023-05-20T10:36:26.300Z,92.00
2023-05-20T10:38:55.942Z,48.20
2023-05-20T10:41:27.831Z,38.08
2023-05-20T10:44:03.152Z,37.90
2023-05-20T10:46:41.900Z,46.78
2023-05-20T10:49:24.000Z,113.88
2023-05-20T10:51:52.570Z,110.82
2023-05-20T10:54:21.243Z,102.85
2023-05-20T10:56:54.692Z,104.18
2023-05-20T10:59:23.251Z,26.58
2023-05-20T11:01:51.400Z,67.07
2023-05-20T11:04:20.656Z,26.42
2023-05-20T11:06:54.311Z,28.15
2023-05-20T11:09:22.750Z,86.88
2023-05-20T11:11:52.002Z,21.30
2023-05-20T11:14:22.908Z,53.58
2023-05-20T11:16:54.332Z,73.82
2023-05-20T11:19:22.699Z,99.30
2023-05-20T11:21:51.491Z,54.28
2023-05-20T11:24:25.780Z,92.32
2023-05-20T11:26:53.942Z,56.08
2023-05-20T11:29:23.305Z,8.68
2023-05-20T11:31:52.256Z,7.32
2023-05-20T11:34:25.051Z,7.63
2023-05-20T11:36:57.973Z,7.97
2023-05-20T11:39:27.537Z,8.55
2023-05-20T11:41:55.759Z,7.97
2023-05-20T11:44:26.584Z,6.88
2023-05-20T11:47:01.684Z,20.60
2023-05-20T11:49:30.947Z,30.05
2023-05-20T11:51:59.073Z,11.70
2023-05-20T11:54:27.478Z,31.80
2023-05-20T11:56:56.676Z,22.77
2023-05-20T11:59:28.578Z,8.57
2023-05-20T12:01:56.929Z,37.97
2023-05-20T12:04:25.158Z,33.13
2023-05-20T12:06:53.432Z,29.52
2023-05-20T12:09:22.541Z,15.38
2023-05-20T12:11:50.936Z,57.13
2023-05-20T12:14:18.983Z,31.70
2023-05-20T12:16:48.395Z,11.10
2023-05-20T12:19:16.560Z,18.33
2023-05-20T12:21:47.249Z,22.58
2023-05-20T12:24:15.288Z,10.18
2023-05-20T12:26:43.263Z,19.67
2023-05-20T12:29:11.256Z,101.82
2023-05-20T12:31:39.264Z,16.13
2023-05-20T12:34:08.685Z,40.90
2023-05-20T12:36:37.747Z,49.15
2023-05-20T12:39:06.182Z,39.58
2023-05-20T12:41:34.296Z,39.70
2023-05-20T12:44:02.537Z,111.78
2023-05-20T12:46:30.629Z,108.85
2023-05-20T12:48:58.999Z,117.28
2023-05-20T12:51:28.321Z,114.35
2023-05-20T12:53:56.527Z,120.32
2023-05-20T12:56:26.408Z,94.28
2023-05-20T12:58:54.396Z,21.45
2023-05-20T13:01:22.682Z,25.55
2023-05-20T13:03:53.326Z,30.23
2023-05-20T13:06:21.371Z,32.78
2023-05-20T13:08:50.859Z,37.85
2023-05-20T13:11:19.058Z,41.28
2023-05-20T13:13:47.058Z,42.17
2023-05-20T13:16:16.741Z,49.97
2023-05-20T13:18:44.861Z,54.95
2023-05-20T13:21:12.899Z,58.33
2023-05-20T13:23:42.485Z,56.40
2023-05-20T13:26:11.983Z,54.50
2023-05-20T13:28:39.980Z,55.03
2023-05-20T13:31:08.034Z,55.28
2023-05-20T13:33:36.154Z,57.95
2023-05-20T13:36:04.452Z,57.35
2023-05-20T13:38:32.911Z,61.05
2023-05-20T13:41:02.015Z,61.33
2023-05-20T13:43:33.286Z,59.25
2023-05-20T13:46:01.570Z,61.53
2023-05-20T13:48:30.166Z,62.60
2023-05-20T13:50:58.158Z,60.05
2023-05-20T13:53:26.174Z,60.10
2023-05-20T13:55:54.380Z,58.15
2023-05-20T13:58:22.355Z,54.58
2023-05-20T14:00:52.100Z,50.78
2023-05-20T14:03:20.319Z,51.22
2023-05-20T14:05:48.391Z,45.42
2023-05-20T14:08:16.397Z,44.85
2023-05-20T14:10:44.403Z,42.38
2023-05-20T14:13:12.430Z,39.97
2023-05-20T14:15:40.526Z,36.72
2023-05-20T14:18:10.057Z,35.50
2023-05-20T14:20:38.141Z,33.25
2023-05-20T14:23:06.173Z,31.50
2023-05-20T14:25:34.285Z,134.90
2023-05-20T14:28:02.318Z,134.73
2023-05-20T14:30:30.466Z,96.07
2023-05-20T14:32:58.477Z,122.72
2023-05-20T14:35:28.005Z,28.30
2023-05-20T14:37:56.033Z,28.27
2023-05-20T14:40:24.151Z,27.67
2023-05-20T14:42:52.233Z,28.27
2023-05-20T14:45:20.694Z,123.15
2023-05-20T14:47:48.744Z,98.13
2023-05-20T14:50:16.944Z,109.55
2023-05-20T14:52:46.285Z,113.38
2023-05-20T14:55:14.405Z,34.53
2023-05-20T14:57:42.472Z,18.05
2023-05-20T15:00:12.007Z,17.83
2023-05-20T15:02:40.143Z,2.13
2023-05-20T15:05:08.805Z,6.28
2023-05-20T15:07:36.949Z,1.92
2023-05-20T15:10:07.859Z,1.60
2023-05-20T15:12:36.130Z,2.88
2023-05-20T15:15:04.241Z,2.45
2023-05-20T15:17:32.292Z,2.33
2023-05-20T15:20:00.374Z,1.67
2023-05-20T15:22:28.405Z,2.30
2023-05-20T15:24:56.402Z,3.03
2023-05-20T15:27:25.774Z,2.65
2023-05-20T15:29:53.746Z,2.22
2023-05-20T15:32:21.824Z,2.03
2023-05-20T15:34:49.878Z,1.05
2023-05-20T15:37:17.934Z,2.13
2023-05-20T15:39:45.957Z,1.55
2023-05-20T15:42:14.110Z,1.38
2023-05-20T15:44:43.426Z,2.05
2023-05-20T15:47:11.634Z,1.70
2023-05-20T15:49:39.627Z,1.67
2023-05-20T15:52:08.051Z,2.13
2023-05-20T15:54:36.027Z,6.47
2023-05-20T15:57:05.111Z,2.20
2023-05-20T15:59:33.242Z,1.70
2023-05-20T16:02:02.638Z,1.42
2023-05-20T16:04:30.779Z,3.75
2023-05-20T16:06:58.820Z,5.10
2023-05-20T16:09:26.840Z,1.33
2023-05-20T16:11:56.112Z,0.90
2023-05-20T16:14:24.141Z,2.58
2023-05-20T16:16:52.119Z,2.42
2023-05-20T16:19:21.462Z,1.80
2023-05-20T16:21:49.517Z,1.48
2023-05-20T16:24:17.558Z,2.33
2023-05-20T16:26:45.674Z,2.05
2023-05-20T16:29:16.240Z,1.10
2023-05-20T16:31:47.115Z,1.58
2023-05-20T16:34:16.872Z,1.05
2023-05-20T16:36:46.467Z,1.60
2023-05-20T16:39:14.868Z,2.00
2023-05-20T16:41:43.106Z,1.50
2023-05-20T16:44:11.314Z,2.20
2023-05-20T16:46:39.308Z,2.75
2023-05-20T16:49:07.399Z,2.17
2023-05-20T16:51:35.873Z,2.15
2023-05-20T16:54:05.382Z,2.42
2023-05-20T16:56:35.472Z,1.60
2023-05-20T16:59:03.678Z,2.10
2023-05-20T17:01:31.948Z,2.25
2023-05-20T17:04:00.340Z,2.25
2023-05-20T17:06:28.402Z,1.52
2023-05-20T17:08:56.628Z,2.13
2023-05-20T17:11:26.154Z,1.15
2023-05-20T17:13:54.181Z,1.60
2023-05-20T17:16:22.415Z,1.92
2023-05-20T17:18:50.484Z,2.88
2023-05-20T17:21:20.420Z,1.67
2023-05-20T17:23:48.729Z,2.60
2023-05-20T17:26:17.373Z,1.73
2023-05-20T17:28:46.723Z,1.42
2023-05-20T17:31:15.241Z,2.22
2023-05-20T17:33:43.322Z,2.53
2023-05-20T17:36:11.436Z,0.70
2023-05-20T17:38:39.428Z,4.93
2023-05-20T17:41:07.382Z,3.80
2023-05-20T17:43:35.493Z,2.33
2023-05-20T17:46:05.065Z,1.77
2023-05-20T17:48:33.487Z,3.97
2023-05-20T17:51:01.900Z,2.55
2023-05-20T17:53:30.027Z,3.25
2023-05-20T17:55:58.145Z,1.85
2023-05-20T17:58:26.782Z,1.05
2023-05-20T18:00:55.001Z,1.30
2023-05-20T18:03:24.411Z,2.28
2023-05-20T18:05:53.859Z,2.58
2023-05-20T18:08:25.339Z,2.10
2023-05-20T18:10:53.657Z,0.85
2023-05-20T18:13:21.621Z,1.90
2023-05-20T18:15:49.741Z,1.52
2023-05-20T18:18:17.746Z,1.17
2023-05-20T18:20:47.100Z,1.35
2023-05-20T18:23:15.167Z,0.85
2023-05-20T18:25:43.161Z,3.47
2023-05-20T18:28:12.851Z,1.88
2023-05-20T18:30:40.895Z,0.80
2023-05-20T18:33:09.050Z,1.38
2023-05-20T18:35:37.147Z,3.03
2023-05-20T18:38:07.182Z,10.23
2023-05-20T18:40:35.338Z,3.58
2023-05-20T18:43:03.391Z,2.40
2023-05-20T18:45:31.394Z,2.58
2023-05-20T18:48:00.151Z,0.93
2023-05-20T18:50:28.341Z,1.77
2023-05-20T18:52:56.349Z,1.40
2023-05-20T18:55:26.350Z,1.65
2023-05-20T18:57:54.332Z,2.85
2023-05-20T19:00:22.339Z,2.38
2023-05-20T19:02:50.431Z,1.70
2023-05-20T19:05:19.730Z,0.77
2023-05-20T19:07:49.056Z,2.03
2023-05-20T19:10:17.083Z,0.73
2023-05-20T19:12:49.889Z,2.13
2023-05-20T19:15:19.131Z,1.15
2023-05-20T19:17:47.130Z,0.60
2023-05-20T19:20:15.217Z,1.88
2023-05-20T19:22:43.224Z,1.90
2023-05-20T19:25:11.520Z,1.20
2023-05-20T19:27:39.576Z,1.80
2023-05-20T19:30:11.168Z,1.17
2023-05-20T19:32:39.515Z,1.52
2023-05-20T19:35:08.472Z,3.38
2023-05-20T19:37:36.491Z,1.38
2023-05-20T19:40:05.340Z,2.72
2023-05-20T19:42:33.313Z,0.93
2023-05-20T19:45:01.301Z,1.02
2023-05-20T19:47:30.721Z,4.03
2023-05-20T19:49:58.700Z,1.75
2023-05-20T19:52:26.796Z,1.80
2023-05-20T19:54:54.816Z,7.78
2023-05-20T19:57:22.795Z,1.85
2023-05-20T19:59:52.900Z,2.65
2023-05-20T20:02:21.676Z,0.98
2023-05-20T20:04:51.876Z,2.58
2023-05-20T20:07:20.176Z,1.05
2023-05-20T20:09:51.419Z,2.17
2023-05-20T20:12:19.483Z,0.98
2023-05-20T20:14:47.498Z,2.55
2023-05-20T20:17:17.167Z,2.33
2023-05-20T20:19:46.325Z,1.77
2023-05-20T20:22:15.929Z,1.60
2023-05-20T20:24:43.889Z,1.80
2023-05-20T20:27:13.317Z,1.27
2023-05-20T20:29:42.063Z,3.03
2023-05-20T20:32:10.182Z,1.85
2023-05-20T20:34:38.365Z,3.55
2023-05-20T20:37:06.865Z,3.10
2023-05-20T20:39:37.182Z,2.30
2023-05-20T20:42:05.617Z,3.00
2023-05-20T20:44:33.614Z,2.38
2023-05-20T20:47:04.100Z,0.85
2023-05-20T20:49:32.650Z,1.65
2023-05-20T20:52:01.287Z,1.60
2023-05-20T20:54:29.282Z,0.98
2023-05-20T20:56:59.945Z,0.82
2023-05-20T20:59:28.147Z,1.35
2023-05-20T21:01:57.759Z,1.50
2023-05-20T21:04:27.881Z,2.50
2023-05-20T21:06:56.062Z,2.13
2023-05-20T21:09:24.156Z,5.00
2023-05-20T21:11:52.136Z,2.65
2023-05-20T21:14:21.523Z,2.85
2023-05-20T21:16:49.621Z,2.03
2023-05-20T21:19:17.766Z,2.45
2023-05-20T21:21:45.797Z,3.45
2023-05-20T21:24:13.791Z,1.70
2023-05-20T21:26:41.861Z,1.95
2023-05-20T21:29:12.059Z,4.22
2023-05-20T21:31:41.490Z,3.53
2023-05-20T21:34:09.558Z,2.42
2023-05-20T21:36:37.564Z,2.85
2023-05-20T21:39:05.678Z,3.72
2023-05-20T21:41:33.870Z,2.05
2023-05-20T21:44:01.861Z,4.72
2023-05-20T21:46:29.912Z,2.42
2023-05-20T21:48:59.264Z,1.35
2023-05-20T21:51:27.269Z,1.90
2023-05-20T21:53:55.371Z,2.30
2023-05-20T21:56:23.436Z,3.35
2023-05-20T21:58:51.518Z,1.98
2023-05-20T22:01:19.774Z,2.45
2023-05-20T22:03:51.251Z,3.63
2023-05-20T22:06:22.042Z,1.65
2023-05-20T22:08:50.093Z,1.48
2023-05-20T22:11:18.096Z,1.55
2023-05-20T22:13:46.185Z,13.55
2023-05-20T22:16:14.388Z,1.05
2023-05-20T22:18:42.727Z,1.80
2023-05-20T22:21:11.287Z,1.63
2023-05-20T22:23:41.626Z,2.35
2023-05-20T22:26:09.971Z,2.60
2023-05-20T22:28:37.999Z,4.47
2023-05-20T22:31:06.360Z,2.05
2023-05-20T22:33:34.397Z,1.52
2023-05-20T22:36:02.410Z,3.05
2023-05-20T22:38:30.855Z,0.98
2023-05-20T22:41:00.200Z,2.13
2023-05-20T22:43:28.331Z,1.38
2023-05-20T22:45:56.359Z,2.15
2023-05-20T22:48:24.358Z,1.20
2023-05-20T22:50:54.066Z,3.80
2023-05-20T22:53:22.070Z,1.77
2023-05-20T22:55:50.088Z,1.33
2023-05-20T22:58:19.542Z,1.15
2023-05-20T23:00:47.548Z,1.27
2023-05-20T23:03:15.951Z,2.38
2023-05-20T23:05:44.031Z,1.58
2023-05-20T23:08:12.017Z,0.93
2023-05-20T23:10:40.125Z,1.63
2023-05-20T23:13:08.122Z,0.80
2023-05-20T23:15:37.610Z,0.77
2023-05-20T23:18:05.879Z,1.88
2023-05-20T23:20:33.998Z,2.28
2023-05-20T23:23:10.493Z,3.65
2023-05-20T23:25:39.661Z,2.22
2023-05-20T23:28:07.810Z,3.20
2023-05-20T23:30:37.358Z,1.73
2023-05-20T23:33:05.608Z,1.40
2023-05-20T23:35:34.130Z,1.67
2023-05-20T23:38:02.290Z,1.52
2023-05-20T23:40:30.565Z,2.20
2023-05-20T23:42:58.610Z,1.40
2023-05-20T23:45:26.590Z,3.10
2023-05-20T23:47:56.214Z,3.60
2023-05-20T23:50:24.364Z,2.17
2023-05-20T23:52:52.339Z,2.70
2023-05-20T23:55:20.816Z,2.75
2023-05-20T23:57:49.813Z,1.17
